Time;durP1;ratioP1;P1;durP2;ratioP2;P2;SDS_P1;SDS_P2;PMS_P1;PMS_P2;Temp;Humidity;BMP_temperature;BMP_pressure;BME280_temperature;BME280_humidity;BME280_pressure;Samples;Min_cycle;Max_cycle;Signal;HPM_P1;HPM_P2
2021/12/07 00:01:00;;;;;;;37.33;21.33;;;;;;;3.55;92.19;98509.51;1717215;82;21422;-73
2021/12/07 00:03:27;;;;;;;30.25;18.25;;;;;;;3.55;93.01;98513.81;1717218;82;21788;-73
2021/12/07 00:05:53;;;;;;;26.68;16.55;;;;;;;3.60;93.13;98508.06;1742605;82;21478;-73
2021/12/07 00:08:20;;;;;;;25.35;15.40;;;;;;;3.68;93.30;98512.56;1742585;82;20999;-74
2021/12/07 00:10:49;;;;;;;26.73;17.12;;;;;;;3.80;93.28;98522.03;1742668;82;20975;-73
2021/12/07 00:13:15;;;;;;;30.45;17.95;;;;;;;3.88;92.93;98532.11;1742485;82;20987;-73
2021/12/07 00:15:41;;;;;;;32.95;20.10;;;;;;;3.91;92.51;98518.31;1742513;82;21640;-74
2021/12/07 00:18:07;;;;;;;34.00;19.87;;;;;;;3.88;92.47;98524.39;1742610;82;20931;-74
2021/12/07 00:20:35;;;;;;;31.17;19.42;;;;;;;3.90;92.72;98520.05;1742563;82;21042;-74
2021/12/07 00:23:06;;;;;;;42.27;22.87;;;;;;;3.98;92.72;98529.67;1717162;82;21022;-74
2021/12/07 00:25:33;;;;;;;45.35;25.75;;;;;;;4.04;92.37;98525.61;1742999;82;20998;-74
2021/12/07 00:28:00;;;;;;;38.83;22.02;;;;;;;4.11;92.16;98509.55;1742528;82;21539;-74
2021/12/07 00:30:31;;;;;;;36.53;21.37;;;;;;;4.13;91.81;98523.22;1742581;82;21145;-71
2021/12/07 00:33:12;;;;;;;37.45;21.95;;;;;;;4.14;92.11;98541.19;1716777;82;21494;-72
2021/12/07 00:35:35;;;;;;;41.00;24.20;;;;;;;4.20;92.09;98540.61;1739784;82;21007;-72
2021/12/07 00:38:12;;;;;;;41.60;23.50;;;;;;;4.19;91.72;98538.48;1717261;82;21078;-73
2021/12/07 00:40:39;;;;;;;39.98;23.02;;;;;;;4.20;91.88;98520.02;1717453;82;21067;-72
2021/12/07 00:43:05;;;;;;;48.38;27.37;;;;;;;4.24;91.67;98510.84;1742669;82;20978;-72
2021/12/07 00:45:34;;;;;;;50.03;26.60;;;;;;;4.25;91.57;98504.81;1742882;82;20978;-72
2021/12/07 00:48:00;;;;;;;47.50;27.52;;;;;;;4.28;91.79;98511.16;1742844;82;20970;-72
2021/12/07 00:50:27;;;;;;;47.00;26.55;;;;;;;4.34;91.70;98516.12;1717288;82;20954;-73
2021/12/07 00:52:54;;;;;;;43.25;24.23;;;;;;;4.39;91.48;98509.09;1742900;82;21047;-73
2021/12/07 00:55:25;;;;;;;40.98;24.20;;;;;;;4.45;91.28;98513.19;1717189;82;21013;-72
2021/12/07 00:57:54;;;;;;;45.95;24.57;;;;;;;4.48;91.00;98515.67;1764779;80;20987;-73
2021/12/07 01:00:21;;;;;;;44.83;26.62;;;;;;;4.49;90.71;98515.63;1791223;80;21026;-72
2021/12/07 01:02:48;;;;;;;45.67;27.65;;;;;;;4.42;90.65;98520.56;1791482;80;20930;-73
2021/12/07 01:05:27;;;;;;;38.40;25.08;;;;;;;4.41;91.00;98514.17;1775562;80;21049;-72
2021/12/07 01:26:41;;;;;;;25.37;16.85;;;;;;;4.09;91.42;98521.17;1720772;82;21045;-73
2021/12/07 01:29:07;;;;;;;24.95;16.45;;;;;;;4.14;91.10;98519.31;1720671;82;20963;-72
2021/12/07 01:31:48;;;;;;;22.70;16.02;;;;;;;4.19;91.09;98515.77;1720483;82;21045;-72
2021/12/07 01:34:26;;;;;;;24.35;16.40;;;;;;;4.22;91.00;98512.63;1745868;82;21006;-73
2021/12/07 01:36:51;;;;;;;24.98;16.57;;;;;;;4.28;91.04;98507.73;1745002;82;20951;-73
2021/12/07 01:47:59;;;;;;;37.40;23.02;;;;;;;4.43;89.95;98508.09;1748572;82;21045;-72
2021/12/07 01:52:55;;;;;;;29.75;19.82;;;;;;;4.38;90.51;98513.01;1748318;82;20959;-72
2021/12/07 02:00:25;;;;;;;30.35;18.52;;;;;;;4.55;90.21;98504.30;1742616;82;21046;-73
2021/12/07 02:02:51;;;;;;;27.45;18.05;;;;;;;4.58;90.02;98488.75;1743112;82;21097;-73
2021/12/07 02:05:18;;;;;;;28.70;18.30;;;;;;;4.60;89.80;98487.38;1742687;82;20998;-73
2021/12/07 02:07:45;;;;;;;25.75;16.30;;;;;;;4.59;89.92;98481.42;1742801;82;20999;-73
2021/12/07 02:10:17;;;;;;;24.47;15.30;;;;;;;4.62;90.04;98482.58;1717221;82;21765;-73
2021/12/07 02:12:46;;;;;;;22.62;14.93;;;;;;;4.67;89.92;98491.00;1742424;82;21022;-73
2021/12/07 02:15:18;;;;;;;27.95;16.55;;;;;;;4.72;89.83;98499.87;1742716;82;21023;-73
2021/12/07 02:17:44;;;;;;;25.50;16.73;;;;;;;4.72;89.41;98503.28;1742800;82;21490;-73
2021/12/07 02:20:12;;;;;;;32.28;18.80;;;;;;;4.65;89.46;98497.93;1742699;82;21513;-73
2021/12/07 02:22:38;;;;;;;32.67;20.20;;;;;;;4.67;89.48;98496.15;1742632;82;21764;-73
2021/12/07 02:25:07;;;;;;;33.60;20.95;;;;;;;4.64;89.43;98492.83;1708181;81;20998;-73
2021/12/07 02:27:33;;;;;;;28.15;18.90;;;;;;;4.64;89.54;98497.98;1693392;84;21026;-73
2021/12/07 02:30:04;;;;;;;31.07;17.87;;;;;;;4.66;89.49;98504.77;1742403;82;21518;-73
2021/12/07 02:32:31;;;;;;;26.42;17.70;;;;;;;4.69;89.33;98505.11;1742970;82;20990;-73
2021/12/07 02:34:59;;;;;;;27.70;17.62;;;;;;;4.70;89.18;98503.78;1717232;82;21128;-74
2021/12/07 02:37:29;;;;;;;26.70;17.45;;;;;;;4.73;89.21;98504.97;1743244;82;21487;-73
2021/12/07 02:39:56;;;;;;;26.90;17.40;;;;;;;4.77;89.16;98503.14;1717222;82;21035;-73
2021/12/07 02:42:23;;;;;;;31.73;19.32;;;;;;;4.80;88.97;98502.56;1717461;82;21042;-73
2021/12/07 02:44:50;;;;;;;33.65;21.62;;;;;;;4.81;88.79;98507.27;1742660;82;21478;-73
2021/12/07 02:47:17;;;;;;;36.50;22.20;;;;;;;4.80;88.62;98498.70;1742646;82;21992;-73
2021/12/07 02:49:44;;;;;;;35.75;20.37;;;;;;;4.80;88.57;98503.02;1742592;82;20987;-73
2021/12/07 02:52:12;;;;;;;28.15;17.55;;;;;;;4.81;88.48;98509.40;1742737;82;20955;-73
2021/12/07 02:54:44;;;;;;;28.83;17.65;;;;;;;4.80;88.41;98512.87;1742630;82;21411;-73
2021/12/07 02:57:08;;;;;;;26.68;17.77;;;;;;;4.82;88.37;98501.23;1742237;82;21069;-73
2021/12/07 02:59:36;;;;;;;28.77;17.90;;;;;;;4.85;88.31;98508.41;1694461;82;20989;-73
2021/12/07 03:02:07;;;;;;;30.25;19.75;;;;;;;4.88;88.31;98506.19;1711646;82;20982;-73
2021/12/07 03:04:38;;;;;;;23.18;15.80;;;;;;;4.91;88.17;98505.23;1718068;82;21026;-73
2021/12/07 03:07:13;;;;;;;25.72;16.27;;;;;;;4.90;87.97;98504.40;1742881;82;20951;-73
2021/12/07 03:25:50;;;;;;;25.45;16.50;;;;;;;4.91;87.66;98503.51;1717530;82;21042;-73
2021/12/07 03:25:58;;;;;;;23.73;14.33;;;;;;;4.89;87.39;98516.05;1743705;82;20951;-73
2021/12/07 03:26:08;;;;;;;23.52;14.78;;;;;;;4.91;88.00;98525.85;1778225;80;21000;-72
2021/12/07 03:28:32;;;;;;;20.50;14.85;;;;;;;4.92;88.03;98524.52;1777153;80;20986;-71
2021/12/07 03:30:59;;;;;;;19.12;14.60;;;;;;;4.96;87.93;98531.70;1709089;81;21493;-71
2021/12/07 03:33:26;;;;;;;24.00;14.93;;;;;;;4.97;87.86;98524.38;1761828;81;21484;-71
2021/12/07 03:35:53;;;;;;;18.73;15.53;;;;;;;4.98;87.76;98533.34;1761630;81;21423;-71
2021/12/07 03:38:20;;;;;;;19.12;14.93;;;;;;;4.94;87.75;98533.04;1761909;81;21491;-71
2021/12/07 03:40:47;;;;;;;23.90;15.60;;;;;;;4.88;87.96;98538.84;1761500;81;20942;-71
2021/12/07 03:43:15;;;;;;;15.95;11.22;;;;;;;4.83;88.12;98544.98;1778073;80;20990;-72
2021/12/07 03:45:42;;;;;;;15.75;11.12;;;;;;;4.76;88.03;98539.65;1793728;80;21013;-72
2021/12/07 03:48:11;;;;;;;21.73;13.22;;;;;;;4.65;88.22;98548.59;1793745;79;20946;-72
2021/12/07 03:50:38;;;;;;;21.50;12.35;;;;;;;4.51;88.47;98550.34;1793704;80;21196;-74
2021/12/07 03:53:05;;;;;;;18.85;11.63;;;;;;;4.38;88.97;98551.18;1793988;80;21478;-72
2021/12/07 03:55:32;;;;;;;17.30;10.68;;;;;;;4.32;89.46;98548.78;1793767;79;21517;-71
2021/12/07 03:57:59;;;;;;;18.32;10.38;;;;;;;4.27;89.76;98557.09;1776715;80;20950;-71
2021/12/07 04:00:28;;;;;;;17.77;9.53;;;;;;;4.24;89.91;98552.03;1791325;79;20978;-71
2021/12/07 04:02:55;;;;;;;17.35;11.25;;;;;;;4.21;90.09;98545.68;1775784;80;21158;-71
2021/12/07 04:05:23;;;;;;;17.42;9.78;;;;;;;4.18;90.40;98552.68;1791206;80;20998;-71
2021/12/07 04:07:51;;;;;;;12.35;9.28;;;;;;;4.18;90.75;98548.81;1791308;80;20990;-71
2021/12/07 04:10:19;;;;;;;11.43;9.10;;;;;;;4.18;90.48;98552.68;1791167;80;20998;-71
2021/12/07 04:12:47;;;;;;;10.13;7.42;;;;;;;4.12;90.79;98552.41;1791314;79;20966;-71
2021/12/07 04:15:16;;;;;;;10.08;6.45;;;;;;;4.10;90.74;98544.73;1791127;79;21948;-72
2021/12/07 04:17:43;;;;;;;9.03;7.22;;;;;;;4.07;90.85;98545.27;1791391;80;21462;-72
2021/12/07 04:20:12;;;;;;;9.03;6.10;;;;;;;4.05;91.19;98542.73;1791163;79;20974;-71
2021/12/07 04:22:39;;;;;;;7.40;6.62;;;;;;;4.09;91.00;98530.63;1791196;80;20967;-71
2021/12/07 04:25:08;;;;;;;5.40;4.78;;;;;;;4.02;90.97;98534.26;1791274;80;21033;-72
2021/12/07 04:27:38;;;;;;;5.60;4.97;;;;;;;3.98;91.29;98528.39;1791180;80;21053;-71
2021/12/07 04:30:14;;;;;;;5.95;5.05;;;;;;;4.00;91.23;98535.59;1775358;80;20934;-71
2021/12/07 04:32:41;;;;;;;5.08;4.20;;;;;;;4.04;90.94;98537.63;1791498;79;20986;-72
2021/12/07 04:35:08;;;;;;;6.22;5.22;;;;;;;3.95;90.49;98532.78;1775481;80;21002;-71
2021/12/07 04:37:35;;;;;;;5.45;4.47;;;;;;;3.85;90.78;98533.48;1775533;80;21526;-72
2021/12/07 04:40:03;;;;;;;6.53;4.92;;;;;;;3.78;90.93;98530.70;1775447;80;21822;-72
2021/12/07 04:42:30;;;;;;;7.40;4.97;;;;;;;3.68;90.99;98538.27;1775664;80;21108;-72
2021/12/07 04:45:00;;;;;;;5.75;4.37;;;;;;;3.60;91.22;98541.05;1791200;80;21013;-72
2021/12/07 04:47:45;;;;;;;4.97;4.03;;;;;;;3.56;91.54;98536.06;1775449;80;20978;-72
2021/12/07 04:50:27;;;;;;;6.20;4.78;;;;;;;3.56;91.72;98538.63;1776333;80;21549;-72
2021/12/07 04:57:58;;;;;;;6.70;5.20;;;;;;;3.46;91.78;98533.73;1775541;80;21387;-73
2021/12/07 05:00:27;;;;;;;5.97;4.78;;;;;;;3.35;91.98;98544.77;1775456;80;21481;-73
2021/12/07 05:03:03;;;;;;;5.75;4.70;;;;;;;3.27;92.22;98545.41;1791541;79;21037;-73
2021/12/07 05:05:33;;;;;;;5.85;5.12;;;;;;;3.22;92.48;98548.53;1775220;80;21043;-73
2021/12/07 05:07:59;;;;;;;6.40;4.95;;;;;;;3.17;92.63;98559.39;1775228;80;21395;-73
2021/12/07 05:10:31;;;;;;;6.17;5.25;;;;;;;3.09;92.85;98563.44;1791575;79;21037;-73
2021/12/07 05:37:46;;;;;;;6.62;5.62;;;;;;;3.01;94.01;98559.36;1791723;80;21458;-71
2021/12/07 05:40:12;;;;;;;9.33;5.87;;;;;;;3.02;93.83;98563.62;1789870;79;20943;-72
2021/12/07 05:42:40;;;;;;;6.83;5.50;;;;;;;2.98;93.85;98564.61;1791739;80;20946;-72
2021/12/07 05:45:10;;;;;;;6.47;5.62;;;;;;;2.94;93.93;98578.41;1791281;79;22134;-72
2021/12/07 05:47:37;;;;;;;6.53;4.97;;;;;;;2.95;94.07;98588.64;1791555;80;20974;-71
2021/12/07 05:50:06;;;;;;;6.67;5.40;;;;;;;2.98;94.05;98589.85;1791348;79;21006;-72
2021/12/07 05:52:33;;;;;;;6.83;5.75;;;;;;;3.00;93.85;98591.91;1791290;79;20974;-72
2021/12/07 05:55:00;;;;;;;7.47;5.83;;;;;;;3.02;93.86;98579.03;1775645;80;20942;-72
2021/12/07 05:57:26;;;;;;;6.78;5.50;;;;;;;3.02;93.74;98585.45;1789586;80;21001;-72
2021/12/07 05:59:52;;;;;;;8.20;6.45;;;;;;;2.97;93.60;98574.47;1787497;80;20989;-72
2021/12/07 06:02:19;;;;;;;7.87;5.83;;;;;;;2.94;93.91;98575.83;1714778;83;20955;-72
2021/12/07 06:04:46;;;;;;;34.13;18.32;;;;;;;2.92;93.89;98573.73;1720988;83;21012;-73
2021/12/07 06:07:12;;;;;;;8.13;6.25;;;;;;;2.91;94.05;98561.78;1712274;82;21037;-73
2021/12/07 06:09:41;;;;;;;7.67;5.45;;;;;;;2.94;94.11;98561.70;1716073;83;20940;-73
2021/12/07 06:12:08;;;;;;;13.22;6.42;;;;;;;2.91;94.14;98557.48;1783447;79;20944;-73
2021/12/07 06:14:42;;;;;;;9.40;6.83;;;;;;;2.93;94.25;98566.44;1781757;79;20996;-73
2021/12/07 06:17:05;;;;;;;7.03;5.75;;;;;;;2.93;94.27;98568.56;1777969;80;21049;-73
2021/12/07 06:19:31;;;;;;;7.30;5.60;;;;;;;2.92;94.15;98576.31;1711161;83;20990;-73
2021/12/07 06:21:58;;;;;;;6.67;5.85;;;;;;;2.91;94.01;98577.19;1709942;82;21019;-73
2021/12/07 06:24:25;;;;;;;7.97;6.35;;;;;;;2.87;94.00;98581.55;1782294;79;21040;-73
2021/12/07 06:26:51;;;;;;;10.05;7.47;;;;;;;2.86;94.40;98578.58;1782844;79;20988;-73
2021/12/07 06:29:18;;;;;;;6.70;5.67;;;;;;;2.89;94.30;98569.52;1785687;79;21436;-74
2021/12/07 06:31:45;;;;;;;8.50;6.15;;;;;;;2.92;94.28;98567.31;1782987;80;20979;-74
2021/12/07 06:34:12;;;;;;;8.10;5.75;;;;;;;2.92;94.23;98564.31;1773743;80;21073;-73
2021/12/07 06:36:40;;;;;;;10.10;8.80;;;;;;;2.97;94.21;98558.63;1776535;80;20939;-73
2021/12/07 06:39:07;;;;;;;8.68;6.30;;;;;;;3.01;94.11;98554.22;1753332;80;21023;-75
2021/12/07 06:41:33;;;;;;;9.98;7.53;;;;;;;3.04;94.04;98542.59;1783876;80;21033;-74
2021/12/07 06:44:00;;;;;;;7.05;6.05;;;;;;;3.00;93.71;98534.55;1783448;80;20998;-77
2021/12/07 06:46:27;;;;;;;6.20;5.60;;;;;;;2.92;93.83;98533.93;1726658;82;21102;-72
2021/12/07 06:48:54;;;;;;;6.72;5.55;;;;;;;2.85;94.01;98529.82;1714785;83;21508;-74
2021/12/07 06:51:22;;;;;;;7.97;6.50;;;;;;;2.81;94.33;98549.59;1767990;80;21101;-73
2021/12/07 06:53:48;;;;;;;7.67;5.75;;;;;;;2.79;94.34;98563.38;1726726;81;21027;-73
2021/12/07 06:56:15;;;;;;;6.22;5.08;;;;;;;2.76;94.37;98568.98;1758838;80;21017;-73
2021/12/07 06:58:42;;;;;;;4.90;3.85;;;;;;;2.74;94.59;98573.31;1754106;81;21468;-73
2021/12/07 07:01:11;;;;;;;5.83;4.65;;;;;;;2.75;94.77;98572.44;1753729;81;21460;-73
2021/12/07 07:03:39;;;;;;;7.05;5.92;;;;;;;2.76;94.74;98584.39;1771974;80;20960;-74
2021/12/07 07:06:06;;;;;;;6.60;5.85;;;;;;;2.75;94.73;98576.29;1748800;80;21037;-73
2021/12/07 07:08:32;;;;;;;6.55;5.47;;;;;;;2.73;94.90;98575.48;1778189;80;21612;-74
2021/12/07 07:10:59;;;;;;;6.22;5.10;;;;;;;2.76;94.95;98576.69;1724345;81;21154;-73
2021/12/07 07:13:26;;;;;;;6.53;5.25;;;;;;;2.78;94.76;98571.96;1754329;81;21013;-72
2021/12/07 07:15:53;;;;;;;6.42;5.35;;;;;;;2.73;94.71;98563.92;1742280;80;21054;-73
2021/12/07 07:18:20;;;;;;;6.47;5.00;;;;;;;2.69;94.95;98561.46;1775446;79;21424;-74
2021/12/07 07:20:47;;;;;;;7.10;5.00;;;;;;;2.67;95.04;98561.94;1766838;79;21038;-73
2021/12/07 07:23:13;;;;;;;7.85;5.95;;;;;;;2.60;95.25;98556.56;1784254;80;22052;-73
2021/12/07 07:25:41;;;;;;;6.53;5.25;;;;;;;2.60;95.45;98562.52;1795871;78;20924;-73
2021/12/07 07:28:08;;;;;;;7.33;5.70;;;;;;;2.58;95.59;98567.30;1810514;78;21003;-74
2021/12/07 07:30:34;;;;;;;8.35;6.37;;;;;;;2.57;95.89;98565.18;1783194;79;21593;-74
2021/12/07 07:33:01;;;;;;;7.50;5.90;;;;;;;2.58;95.83;98565.59;1736088;81;21013;-74
2021/12/07 07:35:27;;;;;;;6.60;5.78;;;;;;;2.57;95.92;98566.47;1710891;83;21168;-72
2021/12/07 07:37:54;;;;;;;6.95;5.70;;;;;;;2.58;96.06;98563.45;1721775;82;21051;-73
2021/12/07 07:40:22;;;;;;;6.00;5.12;;;;;;;2.59;96.22;98551.88;1697233;83;20975;-73
2021/12/07 07:42:49;;;;;;;7.87;6.60;;;;;;;2.59;96.33;98545.89;1679899;84;21459;-73
2021/12/07 07:45:35;;;;;;;9.25;6.80;;;;;;;2.57;96.28;98554.06;1713139;83;21493;-73
2021/12/07 07:48:02;;;;;;;7.30;5.75;;;;;;;2.56;96.74;98569.06;1702127;83;21043;-73
2021/12/07 07:50:28;;;;;;;8.60;6.17;;;;;;;2.63;96.80;98572.71;1712620;83;20962;-73
2021/12/07 07:52:55;;;;;;;7.95;6.25;;;;;;;2.66;96.54;98575.66;1718713;82;21538;-74
2021/12/07 07:55:21;;;;;;;10.68;7.90;;;;;;;2.72;96.57;98579.36;1698484;83;20986;-73
2021/12/07 07:57:48;;;;;;;7.55;5.95;;;;;;;2.72;96.27;98589.20;1679408;83;21084;-73
2021/12/07 08:00:17;;;;;;;7.75;6.40;;;;;;;2.71;96.14;98586.22;1721643;83;21043;-74
2021/12/07 08:02:45;;;;;;;15.15;8.63;;;;;;;2.67;95.80;98589.73;1711329;82;21443;-73
2021/12/07 08:05:12;;;;;;;8.53;6.47;;;;;;;2.63;95.80;98587.27;1734903;81;21494;-73
2021/12/07 08:07:40;;;;;;;7.33;6.05;;;;;;;2.59;95.84;98592.10;1730536;81;21006;-74
2021/12/07 08:10:09;;;;;;;9.13;6.70;;;;;;;2.49;95.89;98590.17;1795972;78;21051;-75
2021/12/07 08:12:37;;;;;;;10.55;6.28;;;;;;;2.40;96.32;98598.91;1786891;80;21160;-74
2021/12/07 08:15:04;;;;;;;8.28;5.85;;;;;;;2.35;96.82;98588.37;1729017;82;21057;-73
2021/12/07 08:17:31;;;;;;;8.30;6.25;;;;;;;2.32;97.15;98592.28;1762248;80;21038;-73
2021/12/07 08:19:58;;;;;;;9.18;6.72;;;;;;;2.27;97.62;98591.09;1763363;80;21237;-73
2021/12/07 08:22:28;;;;;;;8.15;6.50;;;;;;;2.26;97.87;98586.84;1790452;78;21126;-74
2021/12/07 08:24:54;;;;;;;6.72;6.00;;;;;;;2.23;98.22;98576.64;1788201;80;21934;-77
2021/12/07 08:27:21;;;;;;;10.03;6.97;;;;;;;2.21;98.57;98586.52;1812686;78;21490;-73
2021/12/07 08:29:48;;;;;;;8.10;6.28;;;;;;;2.21;99.09;98592.50;1794702;78;21074;-73
2021/12/07 08:32:14;;;;;;;10.43;6.47;;;;;;;2.22;99.03;98592.06;1796408;78;21080;-73
2021/12/07 08:34:42;;;;;;;8.73;5.90;;;;;;;2.18;99.05;98602.02;1763982;80;21000;-72
2021/12/07 08:37:09;;;;;;;7.20;5.62;;;;;;;2.14;99.32;98607.64;1782317;80;21971;-73
2021/12/07 08:39:37;;;;;;;8.28;6.30;;;;;;;2.11;99.29;98610.70;1782005;80;22057;-74
2021/12/07 08:42:05;;;;;;;7.75;6.22;;;;;;;2.09;99.36;98612.02;1758240;80;21085;-73
2021/12/07 08:44:32;;;;;;;7.92;5.92;;;;;;;2.09;99.62;98608.17;1783876;80;21037;-72
2021/12/07 08:46:58;;;;;;;9.20;7.00;;;;;;;2.06;100.00;98612.08;1781968;80;21042;-71
2021/12/07 08:49:25;;;;;;;8.45;6.60;;;;;;;2.07;100.00;98616.33;1758331;80;21047;-70
2021/12/07 08:51:52;;;;;;;8.08;6.35;;;;;;;2.05;100.00;98607.38;1758460;80;21042;-71
2021/12/07 08:59:52;;;;;;;8.15;6.33;;;;;;;1.99;100.00;98593.86;1787134;80;21088;-70
2021/12/07 09:02:22;;;;;;;8.88;7.20;;;;;;;1.96;100.00;98592.64;1716480;83;21829;-69
2021/12/07 09:04:49;;;;;;;7.65;6.80;;;;;;;1.93;100.00;98602.52;1747826;82;20997;-70
2021/12/07 09:07:17;;;;;;;9.08;7.10;;;;;;;1.90;100.00;98594.89;1747996;82;20946;-71
2021/12/07 09:09:44;;;;;;;8.28;6.60;;;;;;;1.90;100.00;98582.06;1748003;82;21473;-71
2021/12/07 09:12:14;;;;;;;9.23;7.03;;;;;;;1.90;100.00;98561.55;1748192;82;21616;-69
2021/12/07 09:14:42;;;;;;;6.87;5.70;;;;;;;1.90;100.00;98554.30;1746724;82;21118;-72
2021/12/07 09:17:12;;;;;;;7.42;5.42;;;;;;;1.90;100.00;98551.73;1740483;80;21097;-71
2021/12/07 09:19:40;;;;;;;7.15;6.20;;;;;;;1.86;100.00;98557.36;1741821;79;21516;-70
2021/12/07 09:22:06;;;;;;;7.75;5.87;;;;;;;1.80;100.00;98548.97;1784160;79;21094;-71
2021/12/07 09:24:33;;;;;;;7.65;5.65;;;;;;;1.76;100.00;98536.65;1761027;80;21586;-70
2021/12/07 09:27:00;;;;;;;6.87;5.42;;;;;;;1.78;100.00;98538.75;1750895;80;21075;-69
2021/12/07 09:29:27;;;;;;;6.50;5.53;;;;;;;1.79;100.00;98521.65;1782057;80;20928;-70
2021/12/07 09:31:56;;;;;;;7.78;6.58;;;;;;;1.82;100.00;98530.09;1749915;80;20983;-70
2021/12/07 09:34:22;;;;;;;7.55;6.72;;;;;;;1.84;100.00;98519.80;1783262;80;21023;-68
2021/12/07 09:36:49;;;;;;;5.65;5.12;;;;;;;1.87;100.00;98525.72;1752402;80;20979;-69
2021/12/07 09:39:17;;;;;;;5.30;4.78;;;;;;;1.88;100.00;98528.69;1782124;80;22132;-70
2021/12/07 09:41:44;;;;;;;5.05;4.37;;;;;;;1.88;100.00;98531.25;1775498;79;21536;-70
2021/12/07 09:44:10;;;;;;;6.92;5.83;;;;;;;1.86;100.00;98527.03;1739141;80;21423;-69
2021/12/07 09:46:37;;;;;;;5.10;4.50;;;;;;;1.80;100.00;98530.56;1751879;80;21567;-69
2021/12/07 09:49:04;;;;;;;16.15;14.60;;;;;;;1.78;100.00;98520.80;1778021;80;21006;-71
2021/12/07 09:51:30;;;;;;;7.00;6.25;;;;;;;1.75;100.00;98510.61;1776656;80;21060;-69
2021/12/07 09:53:58;;;;;;;5.53;4.45;;;;;;;1.74;100.00;98508.92;1730128;82;20969;-70
2021/12/07 09:56:25;;;;;;;5.17;4.10;;;;;;;1.70;100.00;98504.73;1740937;82;21042;-71
2021/12/07 09:58:55;;;;;;;5.60;4.60;;;;;;;1.67;100.00;98518.45;1810222;78;21859;-69
2021/12/07 10:01:23;;;;;;;7.20;5.80;;;;;;;1.63;100.00;98515.53;1784352;80;20971;-69
2021/12/07 10:03:50;;;;;;;6.87;4.83;;;;;;;1.59;100.00;98515.66;1757090;80;21019;-71
2021/12/07 10:06:16;;;;;;;5.53;4.62;;;;;;;1.59;100.00;98519.06;1757511;80;21499;-69
2021/12/07 10:08:44;;;;;;;8.05;4.58;;;;;;;1.60;100.00;98519.91;1756257;80;21039;-69
2021/12/07 10:11:11;;;;;;;5.03;4.40;;;;;;;1.60;100.00;98509.66;1785460;80;20984;-70
2021/12/07 10:13:40;;;;;;;5.92;4.83;;;;;;;1.61;100.00;98518.56;1776365;79;21645;-70
2021/12/07 10:16:08;;;;;;;5.25;4.55;;;;;;;1.59;100.00;98516.94;1756131;80;21064;-71
2021/12/07 10:18:36;;;;;;;6.50;4.62;;;;;;;1.58;100.00;98513.53;1787309;80;21334;-71
2021/12/07 10:21:15;;;;;;;4.47;4.08;;;;;;;1.55;100.00;98523.00;1782978;80;20995;-68
2021/12/07 10:23:53;;;;;;;6.65;4.87;;;;;;;1.57;100.00;98526.38;1787289;80;21047;-69
2021/12/07 10:26:26;;;;;;;6.37;4.65;;;;;;;1.57;100.00;98521.25;1787091;80;21050;-69
2021/12/07 10:29:12;;;;;;;5.87;5.28;;;;;;;1.56;100.00;98525.53;1787736;79;21067;-71
2021/12/07 10:31:51;;;;;;;5.85;4.78;;;;;;;1.58;100.00;98519.09;1741193;80;21037;-72
2021/12/07 10:34:29;;;;;;;6.58;5.08;;;;;;;1.62;100.00;98513.84;1785268;79;21002;-68
2021/12/07 10:37:12;;;;;;;6.80;5.50;;;;;;;1.61;100.00;98504.47;1786808;78;21039;-68
2021/12/07 10:39:42;;;;;;;7.92;6.30;;;;;;;1.53;100.00;98494.84;1776258;80;20983;-69
2021/12/07 10:42:16;;;;;;;7.30;5.40;;;;;;;1.50;100.00;98494.89;1743402;80;21741;-69
2021/12/07 10:44:43;;;;;;;7.55;5.83;;;;;;;1.48;100.00;98499.64;1756703;80;21136;-70
2021/12/07 10:47:12;;;;;;;8.75;6.35;;;;;;;1.44;100.00;98505.26;1776613;80;21464;-70
2021/12/07 10:49:50;;;;;;;12.00;9.83;;;;;;;1.46;100.00;98505.23;1777948;79;21042;-69
2021/12/07 10:52:30;;;;;;;7.60;6.30;;;;;;;1.50;100.00;98512.83;1773963;80;21101;-71
2021/12/07 10:55:19;;;;;;;8.08;6.53;;;;;;;1.49;100.00;98503.45;1775202;80;21556;-70
2021/12/07 10:57:56;;;;;;;9.00;7.62;;;;;;;1.44;100.00;98501.42;1729331;80;21515;-70
2021/12/07 11:00:27;;;;;;;8.00;6.92;;;;;;;1.40;100.00;98482.32;1730435;82;21077;-70
2021/12/07 11:03:00;;;;;;;7.72;6.92;;;;;;;1.40;100.00;98478.48;1780845;79;21520;-70
2021/12/07 11:05:37;;;;;;;8.83;7.90;;;;;;;1.38;100.00;98474.22;1776607;80;20944;-70
2021/12/07 11:08:05;;;;;;;7.83;7.05;;;;;;;1.38;100.00;98472.10;1772174;80;21124;-70
2021/12/07 11:10:37;;;;;;;8.60;7.42;;;;;;;1.41;100.00;98472.45;1785582;80;21021;-71
2021/12/07 11:13:14;;;;;;;8.28;7.17;;;;;;;1.40;100.00;98474.63;1775011;80;20992;-69
2021/12/07 11:15:54;;;;;;;7.95;6.67;;;;;;;1.44;100.00;98468.11;1774995;79;21477;-70
2021/12/07 11:18:40;;;;;;;13.10;9.25;;;;;;;1.46;100.00;98474.05;1782279;79;21033;-70
2021/12/07 11:21:14;;;;;;;10.28;8.48;;;;;;;1.45;100.00;98471.52;1774081;80;21668;-69
2021/12/07 11:23:48;;;;;;;7.60;6.80;;;;;;;1.47;100.00;98473.61;1764147;80;20979;-70
2021/12/07 11:31:49;;;;;;;9.20;7.60;;;;;;;1.46;100.00;98461.67;1746488;80;21092;-68
2021/12/07 11:34:28;;;;;;;8.73;6.85;;;;;;;1.37;100.00;98461.45;1775009;80;21523;-70
2021/12/07 11:37:10;;;;;;;7.53;6.55;;;;;;;1.31;100.00;98465.41;1773802;80;21024;-69
2021/12/07 11:39:48;;;;;;;7.70;6.17;;;;;;;1.29;100.00;98460.31;1748682;80;21077;-69
2021/12/07 11:42:23;;;;;;;8.48;6.80;;;;;;;1.27;100.00;98464.62;1752019;80;21472;-69
2021/12/07 11:44:59;;;;;;;8.50;7.00;;;;;;;1.27;100.00;98462.05;1780374;80;21073;-69
2021/12/07 11:47:35;;;;;;;10.53;9.10;;;;;;;1.28;100.00;98462.90;1784606;80;22217;-69
2021/12/07 11:50:22;;;;;;;8.08;6.17;;;;;;;1.30;100.00;98463.72;1778321;80;20999;-68
2021/12/07 11:53:01;;;;;;;7.80;6.37;;;;;;;1.32;100.00;98469.22;1782207;79;20936;-69
2021/12/07 11:55:28;;;;;;;6.72;5.90;;;;;;;1.34;100.00;98466.19;1746119;80;21004;-69
2021/12/07 11:57:55;;;;;;;7.75;6.30;;;;;;;1.39;100.00;98459.70;1754477;80;20980;-69
2021/12/07 12:00:28;;;;;;;8.25;6.03;;;;;;;1.43;100.00;98453.61;1772887;80;21151;-69
2021/12/07 12:02:55;;;;;;;6.95;5.42;;;;;;;1.45;100.00;98454.42;1780128;80;20983;-69
2021/12/07 12:05:22;;;;;;;6.60;5.17;;;;;;;1.44;100.00;98458.30;1781957;80;21560;-69
2021/12/07 12:07:49;;;;;;;6.90;5.30;;;;;;;1.40;100.00;98456.70;1781467;80;21046;-69
2021/12/07 12:10:18;;;;;;;7.25;5.75;;;;;;;1.33;100.00;98460.66;1751277;80;21090;-70
2021/12/07 12:13:27;;;;;;;6.05;5.40;;;;;;;1.30;100.00;98472.25;1776420;80;21161;-70
2021/12/07 12:16:32;;;;;;;6.58;5.45;;;;;;;1.28;100.00;98464.18;1710979;81;21032;-71
2021/12/07 12:19:23;;;;;;;9.00;5.87;;;;;;;1.25;100.00;98457.40;1720491;81;21058;-75
2021/12/07 12:22:45;;;;;;;7.92;6.30;;;;;;;1.23;100.00;98454.02;1725290;82;21678;-74
2021/12/07 12:25:27;;;;;;;8.83;5.50;;;;;;;1.25;100.00;98468.92;1780729;79;20900;-73
2021/12/07 12:27:56;;;;;;;5.90;4.80;;;;;;;1.26;100.00;98473.17;1766092;80;21651;-73
2021/12/07 12:30:32;;;;;;;5.28;4.33;;;;;;;1.26;100.00;98480.86;1793463;78;21090;-74
2021/12/07 12:33:05;;;;;;;5.17;4.28;;;;;;;1.27;100.00;98471.02;1777393;80;21312;-76
2021/12/07 12:35:49;;;;;;;4.30;3.87;;;;;;;1.29;100.00;98465.43;1747493;80;21492;-71
2021/12/07 12:38:20;;;;;;;4.67;4.05;;;;;;;1.32;100.00;98473.50;1762291;80;21535;-74
2021/12/07 12:40:55;;;;;;;5.05;4.10;;;;;;;1.34;100.00;98485.84;1778951;80;22195;-72
2021/12/07 12:43:55;;;;;;;5.37;4.42;;;;;;;1.31;100.00;98494.42;1747100;80;21669;-74
2021/12/07 12:46:28;;;;;;;5.00;3.75;;;;;;;1.30;100.00;98495.30;1775689;80;21080;-71
2021/12/07 12:48:58;;;;;;;4.37;3.77;;;;;;;1.29;100.00;98494.89;1770244;79;21538;-71
2021/12/07 12:51:28;;;;;;;5.30;4.58;;;;;;;1.28;100.00;98498.33;1747902;79;21496;-75
2021/12/07 12:53:57;;;;;;;4.03;3.62;;;;;;;1.27;100.00;98512.44;1685801;81;21023;-73
2021/12/07 12:56:30;;;;;;;5.20;4.42;;;;;;;1.29;100.00;98519.23;1779272;79;21033;-72
2021/12/07 12:59:04;;;;;;;5.80;4.17;;;;;;;1.33;100.00;98525.98;1779769;79;21559;-72
2021/12/07 13:01:36;;;;;;;4.35;3.77;;;;;;;1.33;100.00;98528.55;1740201;80;21059;-72
2021/12/07 13:04:16;;;;;;;5.35;4.67;;;;;;;1.36;100.00;98522.09;1772843;80;21617;-74
2021/12/07 13:06:55;;;;;;;3.90;3.50;;;;;;;1.36;100.00;98514.40;1776206;79;21156;-72
2021/12/07 13:09:23;;;;;;;4.10;3.47;;;;;;;1.36;100.00;98514.40;1784368;79;20946;-71
2021/12/07 13:11:56;;;;;;;4.37;3.35;;;;;;;1.35;100.00;98513.99;1753151;79;21104;-75
2021/12/07 13:14:29;;;;;;;3.00;2.70;;;;;;;1.33;100.00;98509.77;1763929;80;21006;-71